Richmond, Rhode Island
Current Conditions -  °F | °C
As of 5:53 PM on Wednesday 22 Oct 2014 (Local Time) from KWST Reporting Station
Light Rain Light Rain  
Wind Chill: 52°   Ceiling: 1600
Heat Index: 52°   Visibility: 10mi
Dew Point: 49°   Wind: 18mph
Humidity: 89%   Direction: 10°N
Pressure: 29.75"   Gusts: 31mph
Location:  41.5104°N, 71.7381°W
Report Text: KWST 222153Z AUTO 01016G27KT 10SM -RA OVC016 11/09 A2975 RMK AO2 PK WND 02034/2136 SLP073 P0005 T01110094
Loading
Personal Weather Stations






























Interactive Weather Map
Tropical Storm Tracking
New forecast layout! Learn more

10-Day Weather Forecast

Advertisements
Track Severe Weather on mobile